Airfield :
LOGIN :

Register | Disclaimer

   EN    FR    IT 

 










Legend :    VFR   Marginal VFR   IFR   Intensive IFR   Very Intensive IFR
Visi :
Ceiling :
>= 8 km
>= 3000ft
5 to 8 km
1000 to 3000 ft
1500m to 5 km
500 to 1000 ft
800 to 1500m
200 to 500 ft
< 800m
< 200 ft
Symbols :   Thunderstorms  Fog  Heavy snow  Heavy precipitations  Wind > 20 kt
SIGMETs :     Misc.  Thunderstorms  Icing  Turbulence  Mountain Waves  Volcanic Ashes







- Airport Elevation : 412 ft
- IATA code : ORE
- Download approach charts


LFOJ - Orleans

CURRENT METAR :
  • 251400Z AUTO 02010KT 9999 FEW022 BKN038 BKN050 09/03 Q1011 TEMPO 03015G25KT 4000 -RA BKN013

EXPIRED METARs :
  • 251330Z AUTO 06006KT 360V100 9999 FEW018 SCT023 OVC034 08/04 Q1011 TEMPO 03015G25KT 4000 -RA BKN013
  • 251300Z AUTO 07004KT 030V090 9999 BKN020 BKN028 OVC033 07/04 Q1011 TEMPO 03015G25KT 4000 -RA BKN013
  • 251230Z AUTO 08006KT 030V110 9999 SCT020 BKN026 BKN031 07/04 Q1011 TEMPO 03015G25KT 4000 -RA BKN013
  • 251200Z AUTO 06006KT 9999 FEW018 SCT025 OVC052 07/03 Q1012 TEMPO 03015G25KT 4000 -RA BKN013
  • 251130Z AUTO 06007KT 9999 -RA FEW017 SCT022 BKN035 07/03 Q1012 TEMPO 03015G25KT 4000 -RA BKN013

TAF TAF LFOJ
Valid from the 25 at 09:00 until the 26 at 09:00 UTC


250800Z 2509/2609 03012KT 9999 OVC030
TEMPO 2510/2515 03015G25KT 4000 -RA BKN013
BECMG 2517/2518 BKN050
No reported NOTAMs for that airfield.



MET'MAP, your aeronautical weather chart ! - Copyright ORBIFLY December 2007 - Disclaimer

ORBIFLY MET'MAP TEAM :

Programming & Development : Alexandra Zaïnal
Concept & Development : Baudouin d'Aumeries
Co-Development & Prog : Marc-Olivier Méhu
Technical & hardware support : Manuel Goepfert

Contact : metmap@orbifly.com




SOURCES & CREDITS :

   NOAA